Alts de Monte Brisas, Puerto Rico
Current Conditions -  °F | °C
As of 6:53 PM on Wednesday 26 Nov 2014 (Local Time) from TJNR Reporting Station
Broken Clouds Broken Clouds  
Wind Chill: 80°   Ceiling: 8000
Heat Index: 85°   Visibility: 10mi
Dew Point: 74°   Wind: 9mph
Humidity: 81%   Direction: 60°ENE
Pressure: 30.03"   Gusts: 20mph
Location:  18.3304°N, 65.6573°W
Report Text: TJNR 262253Z AUTO 06008G17KT 10SM BKN080 27/23 A3003 RMK AO2 SLP169 T02670233 $
Loading
Personal Weather Stations






























Interactive Weather Map New forecast layout! Learn more

10-Day Weather Forecast

Advertisements
Track Severe Weather on mobile